Time;durP1;ratioP1;P1;durP2;ratioP2;P2;SDS_P1;SDS_P2;PMS_P1;PMS_P2;Temp;Humidity;BMP_temperature;BMP_pressure;BME280_temperature;BME280_humidity;BME280_pressure;Samples;Min_cycle;Max_cycle;Signal;HPM_P1;HPM_P2
2021/11/26 00:01:10;;;;;;;52.30;29.90;;;2.50;99.90;;;;;;4994372;28;20521;-65
2021/11/26 00:03:36;;;;;;;59.17;31.60;;;2.60;99.90;;;;;;4994822;28;20521;-64
2021/11/26 00:06:02;;;;;;;51.03;30.90;;;2.60;99.90;;;;;;4994175;28;20441;-65
2021/11/26 00:08:28;;;;;;;54.83;29.83;;;2.70;99.90;;;;;;4994751;28;20188;-65
2021/11/26 00:10:53;;;;;;;49.57;29.20;;;2.70;99.90;;;;;;4994402;28;20199;-64
2021/11/26 00:13:20;;;;;;;54.70;30.50;;;2.60;99.90;;;;;;4994266;28;20203;-65
2021/11/26 00:15:45;;;;;;;60.83;32.03;;;2.60;99.90;;;;;;4994075;28;20210;-65
2021/11/26 00:18:20;;;;;;;56.90;33.10;;;2.60;99.90;;;;;;4994003;28;20772;-65
2021/11/26 00:20:47;;;;;;;53.57;31.77;;;2.60;99.90;;;;;;4993878;28;20213;-65
2021/11/26 00:23:13;;;;;;;64.10;33.50;;;2.60;99.90;;;;;;4994227;28;20431;-65
2021/11/26 00:25:40;;;;;;;57.80;32.80;;;2.50;99.90;;;;;;4993512;28;20514;-65
2021/11/26 00:28:06;;;;;;;58.10;32.67;;;2.50;99.90;;;;;;4993933;28;20439;-65
2021/11/26 00:30:32;;;;;;;57.00;32.73;;;2.50;99.90;;;;;;4993936;28;20524;-65
2021/11/26 00:32:57;;;;;;;59.13;30.97;;;2.60;99.90;;;;;;4994263;28;20462;-65
2021/11/26 00:35:23;;;;;;;61.50;34.80;;;2.50;99.90;;;;;;4993767;28;20430;-65
2021/11/26 00:37:49;;;;;;;52.13;29.53;;;2.60;99.90;;;;;;4993973;28;20431;-65
2021/11/26 00:40:15;;;;;;;65.40;34.43;;;2.60;99.90;;;;;;4993778;28;20192;-65
2021/11/26 00:42:42;;;;;;;60.03;32.77;;;2.60;99.90;;;;;;4994050;28;20653;-65
2021/11/26 00:45:12;;;;;;;58.93;32.03;;;2.60;99.90;;;;;;4994037;28;20932;-65
2021/11/26 00:47:38;;;;;;;55.93;31.10;;;2.60;99.90;;;;;;4993371;28;20919;-65
2021/11/26 00:50:05;;;;;;;58.77;33.20;;;2.60;99.90;;;;;;4993566;28;20639;-65
2021/11/26 00:52:30;;;;;;;61.83;34.80;;;2.60;99.90;;;;;;4993483;28;20555;-65
2021/11/26 00:54:56;;;;;;;59.80;35.20;;;2.70;99.90;;;;;;4993704;28;21034;-65
2021/11/26 00:57:21;;;;;;;64.63;33.87;;;2.70;99.90;;;;;;4993449;28;20179;-65
2021/11/26 00:59:47;;;;;;;60.13;34.93;;;2.60;99.90;;;;;;4992116;28;20206;-65
2021/11/26 01:02:14;;;;;;;62.73;35.30;;;2.70;99.90;;;;;;4993594;28;20353;-65
2021/11/26 01:04:40;;;;;;;53.30;30.00;;;2.70;99.90;;;;;;4993617;28;20188;-65
2021/11/26 01:07:06;;;;;;;56.63;31.60;;;2.50;99.90;;;;;;4993112;28;20442;-65
2021/11/26 01:09:31;;;;;;;61.93;32.60;;;2.60;99.90;;;;;;4993256;28;20294;-65
2021/11/26 01:11:57;;;;;;;57.17;31.73;;;2.50;99.90;;;;;;4993527;28;20238;-65
2021/11/26 01:14:23;;;;;;;55.57;32.20;;;2.60;99.90;;;;;;4993703;28;20214;-65
2021/11/26 01:16:49;;;;;;;54.00;30.40;;;2.70;99.90;;;;;;4993038;28;20180;-65
2021/11/26 01:19:15;;;;;;;60.63;32.63;;;2.70;99.90;;;;;;4992842;28;20893;-65
2021/11/26 01:21:40;;;;;;;57.13;30.90;;;2.70;99.90;;;;;;4993240;28;20527;-65
2021/11/26 01:24:06;;;;;;;58.90;32.47;;;2.70;99.90;;;;;;4993030;28;20180;-65
2021/11/26 01:26:31;;;;;;;65.23;31.97;;;2.70;99.90;;;;;;4992771;28;20175;-65
2021/11/26 01:28:57;;;;;;;55.97;31.67;;;2.70;99.90;;;;;;4992776;28;20199;-65
2021/11/26 01:31:23;;;;;;;63.43;29.83;;;2.70;99.90;;;;;;4992979;28;20199;-65
2021/11/26 01:33:51;;;;;;;50.93;27.77;;;2.70;99.90;;;;;;4993021;28;20176;-65
2021/11/26 01:36:17;;;;;;;64.33;33.13;;;2.70;99.90;;;;;;4992574;28;20513;-65
2021/11/26 01:38:42;;;;;;;52.20;28.67;;;2.70;99.90;;;;;;4992628;28;20510;-65
2021/11/26 01:41:09;;;;;;;58.43;32.00;;;2.50;99.90;;;;;;4992406;28;20559;-65
2021/11/26 01:43:35;;;;;;;52.27;30.73;;;2.50;99.90;;;;;;4992739;28;20183;-65
2021/11/26 01:46:09;;;;;;;54.73;32.77;;;2.60;99.90;;;;;;4992410;28;20802;-65
2021/11/26 01:48:37;;;;;;;51.40;30.60;;;2.60;99.90;;;;;;4992863;28;20446;-65
2021/11/26 01:51:03;;;;;;;51.90;32.07;;;2.60;99.90;;;;;;4991631;28;21006;-65
2021/11/26 01:53:29;;;;;;;53.90;31.07;;;2.60;99.90;;;;;;4992778;28;20429;-65
2021/11/26 01:55:54;;;;;;;56.33;33.30;;;2.60;99.90;;;;;;4991864;28;20496;-65
2021/11/26 01:58:20;;;;;;;56.47;31.50;;;2.60;99.90;;;;;;4992632;28;20237;-65
2021/11/26 02:00:48;;;;;;;46.10;29.37;;;2.60;99.90;;;;;;4992780;28;20282;-65
2021/11/26 02:03:14;;;;;;;54.03;30.00;;;2.60;99.90;;;;;;4992656;28;20441;-65
2021/11/26 02:05:40;;;;;;;51.40;28.77;;;2.60;99.90;;;;;;4992208;28;20430;-65
2021/11/26 02:08:07;;;;;;;51.70;29.73;;;2.70;99.90;;;;;;4992390;28;20438;-65
2021/11/26 02:10:33;;;;;;;52.37;30.40;;;2.50;99.90;;;;;;4994314;28;20971;-65
2021/11/26 02:12:59;;;;;;;55.63;29.00;;;2.60;99.90;;;;;;4998464;28;20465;-65
2021/11/26 02:15:28;;;;;;;51.37;27.87;;;2.60;99.90;;;;;;4997464;28;20916;-65
2021/11/26 02:17:56;;;;;;;56.03;31.10;;;2.60;99.90;;;;;;4996805;28;20179;-65
2021/11/26 02:20:28;;;;;;;49.57;30.47;;;2.70;99.90;;;;;;5004539;28;20572;-65
2021/11/26 02:22:56;;;;;;;51.23;30.97;;;2.70;99.90;;;;;;5003200;28;20446;-65
2021/11/26 02:25:23;;;;;;;46.43;28.40;;;2.70;99.90;;;;;;5010648;28;20496;-65
2021/11/26 02:27:50;;;;;;;53.20;29.60;;;2.60;99.90;;;;;;4997491;28;20441;-65
2021/11/26 02:30:16;;;;;;;50.97;28.57;;;2.60;99.90;;;;;;4996775;28;20454;-65
2021/11/26 02:32:44;;;;;;;55.80;29.27;;;2.50;99.90;;;;;;5001574;28;20460;-65
2021/11/26 02:35:11;;;;;;;50.60;28.43;;;2.50;99.90;;;;;;5000518;28;20955;-65
2021/11/26 02:37:39;;;;;;;51.10;29.80;;;2.60;99.90;;;;;;4994004;28;20846;-65
2021/11/26 02:40:06;;;;;;;50.97;30.37;;;2.60;99.90;;;;;;5007442;28;20527;-65
2021/11/26 02:42:31;;;;;;;51.63;31.70;;;2.70;99.90;;;;;;4994809;28;20529;-65
2021/11/26 02:44:57;;;;;;;52.33;28.80;;;2.70;99.90;;;;;;5006752;28;20525;-65
2021/11/26 02:47:23;;;;;;;52.90;28.70;;;2.60;99.90;;;;;;4999559;28;20591;-65
2021/11/26 02:49:49;;;;;;;46.70;28.93;;;2.60;99.90;;;;;;4993386;28;20273;-65
2021/11/26 02:52:14;;;;;;;53.73;30.50;;;2.50;99.90;;;;;;4993596;28;20187;-65
2021/11/26 02:54:40;;;;;;;55.33;31.43;;;2.50;99.90;;;;;;4995752;28;20465;-65
2021/11/26 02:57:06;;;;;;;57.73;30.30;;;2.60;99.90;;;;;;4995589;28;20674;-65
2021/11/26 02:59:31;;;;;;;45.57;29.13;;;2.70;99.90;;;;;;4995369;28;20200;-65
2021/11/26 03:01:57;;;;;;;53.73;31.50;;;2.60;99.90;;;;;;4995889;28;20218;-64
2021/11/26 03:04:22;;;;;;;54.63;29.70;;;2.70;99.90;;;;;;4995790;28;20175;-65
2021/11/26 03:06:59;;;;;;;49.90;29.20;;;2.60;99.90;;;;;;4995468;28;20183;-65
2021/11/26 03:09:25;;;;;;;53.50;29.50;;;2.50;99.90;;;;;;4998443;28;20218;-65
2021/11/26 03:11:50;;;;;;;51.87;29.37;;;2.50;99.90;;;;;;4995649;28;20516;-65
2021/11/26 03:14:16;;;;;;;51.00;29.73;;;2.50;99.90;;;;;;4995453;28;20657;-65
2021/11/26 03:16:41;;;;;;;68.40;31.07;;;2.50;99.90;;;;;;4992035;28;20649;-65
2021/11/26 03:19:07;;;;;;;47.07;30.13;;;2.40;99.90;;;;;;5016362;23;20207;-70
2021/11/26 03:21:32;;;;;;;52.93;30.60;;;2.50;99.90;;;;;;4997814;28;20195;-69
2021/11/26 03:23:58;;;;;;;44.67;28.00;;;2.50;99.90;;;;;;4996091;28;20188;-70
2021/11/26 03:26:23;;;;;;;46.70;26.43;;;2.50;99.90;;;;;;4995381;28;20661;-71
2021/11/26 03:28:49;;;;;;;45.03;27.30;;;2.50;99.90;;;;;;5001607;28;20219;-70
2021/11/26 03:31:14;;;;;;;52.10;29.30;;;2.50;99.90;;;;;;5024089;28;20291;-69
2021/11/26 03:33:40;;;;;;;47.67;27.83;;;2.50;99.90;;;;;;5027762;28;20255;-70
2021/11/26 03:36:05;;;;;;;48.07;28.00;;;2.60;99.90;;;;;;5033655;28;20583;-70
2021/11/26 03:38:31;;;;;;;50.40;31.83;;;2.50;99.90;;;;;;5015073;28;20175;-70
2021/11/26 03:40:56;;;;;;;48.53;26.20;;;2.60;99.90;;;;;;5022292;28;20574;-69
2021/11/26 03:43:22;;;;;;;46.70;28.70;;;2.70;99.90;;;;;;5021885;28;20556;-69
2021/11/26 03:45:47;;;;;;;42.07;25.40;;;2.60;99.90;;;;;;5028363;28;20566;-69
2021/11/26 03:48:13;;;;;;;44.57;26.67;;;2.60;99.90;;;;;;5032858;28;20180;-69
2021/11/26 03:50:39;;;;;;;46.07;28.20;;;2.70;99.90;;;;;;5014895;28;20211;-70
2021/11/26 03:53:05;;;;;;;47.47;29.00;;;2.60;99.90;;;;;;5019051;28;20474;-69
2021/11/26 03:55:30;;;;;;;54.37;28.13;;;2.70;99.90;;;;;;5020928;28;20174;-69
2021/11/26 03:57:57;;;;;;;51.57;31.50;;;2.70;99.90;;;;;;5019646;28;20632;-70
2021/11/26 04:00:23;;;;;;;49.13;27.73;;;2.70;99.90;;;;;;5030761;28;20289;-69
2021/11/26 04:02:49;;;;;;;55.70;29.63;;;2.70;99.90;;;;;;5028326;28;20519;-70
2021/11/26 04:05:16;;;;;;;47.80;28.07;;;2.70;99.90;;;;;;5024992;28;20174;-69
2021/11/26 04:07:42;;;;;;;52.03;27.87;;;2.70;99.90;;;;;;5017169;28;20471;-69
2021/11/26 04:10:09;;;;;;;54.27;30.80;;;2.70;99.90;;;;;;5015303;28;20536;-69
2021/11/26 04:12:35;;;;;;;50.90;29.60;;;2.70;99.90;;;;;;5027275;28;20464;-69
2021/11/26 04:15:01;;;;;;;53.43;29.47;;;2.70;99.90;;;;;;5018235;28;20483;-70
2021/11/26 04:17:26;;;;;;;53.53;30.70;;;2.60;99.90;;;;;;5023924;28;20182;-69
2021/11/26 04:19:52;;;;;;;50.07;32.40;;;2.60;99.90;;;;;;5005032;28;20212;-69
2021/11/26 04:22:18;;;;;;;51.13;29.17;;;2.50;99.90;;;;;;5027175;28;20187;-69
2021/11/26 04:24:44;;;;;;;57.30;32.10;;;2.50;99.90;;;;;;5014007;28;20175;-69
2021/11/26 04:27:09;;;;;;;55.33;31.67;;;2.50;99.90;;;;;;5022693;28;20441;-69
2021/11/26 04:29:35;;;;;;;68.73;33.73;;;2.30;99.90;;;;;;5021298;28;20580;-69
2021/11/26 04:32:01;;;;;;;61.50;33.10;;;2.20;99.90;;;;;;5029956;28;20337;-70
2021/11/26 04:34:27;;;;;;;63.97;31.87;;;2.10;99.90;;;;;;5032059;28;20647;-69
2021/11/26 04:36:52;;;;;;;66.23;34.33;;;1.90;99.90;;;;;;5033030;28;20178;-69
2021/11/26 04:39:18;;;;;;;61.00;32.07;;;2.00;99.90;;;;;;5017049;28;20464;-69
2021/11/26 04:41:44;;;;;;;64.40;33.57;;;2.10;99.90;;;;;;5017778;28;20183;-70
2021/11/26 04:44:09;;;;;;;64.30;32.50;;;2.10;99.90;;;;;;5014813;28;20388;-69
2021/11/26 04:46:35;;;;;;;63.83;34.30;;;2.10;99.90;;;;;;5013274;28;20187;-70
2021/11/26 04:49:04;;;;;;;64.00;33.37;;;2.10;99.90;;;;;;5031770;28;20194;-70
2021/11/26 04:51:29;;;;;;;59.47;30.50;;;2.10;99.90;;;;;;5019209;28;20202;-69
2021/11/26 04:53:55;;;;;;;57.73;31.03;;;2.30;99.90;;;;;;5025883;28;20799;-70
2021/11/26 04:56:20;;;;;;;51.20;30.57;;;2.40;99.90;;;;;;5015165;28;20181;-70
2021/11/26 04:58:46;;;;;;;59.40;33.40;;;2.40;99.90;;;;;;5017213;28;20187;-70
2021/11/26 05:01:12;;;;;;;47.03;27.73;;;2.30;99.90;;;;;;5028738;28;20195;-70
2021/11/26 05:03:37;;;;;;;54.53;30.20;;;2.20;99.90;;;;;;5026127;28;20628;-70
2021/11/26 05:06:03;;;;;;;62.20;29.97;;;2.00;99.90;;;;;;5016212;28;20174;-69
2021/11/26 05:08:29;;;;;;;57.10;29.97;;;1.80;99.90;;;;;;5032288;28;20636;-69
2021/11/26 05:10:55;;;;;;;60.33;28.73;;;1.60;99.90;;;;;;5015426;28;20223;-69
2021/11/26 05:13:23;;;;;;;58.30;31.73;;;1.50;99.90;;;;;;5013854;28;20190;-69
2021/11/26 05:15:49;;;;;;;54.67;28.10;;;1.40;99.90;;;;;;5013059;28;20429;-69
2021/11/26 05:18:15;;;;;;;54.50;29.10;;;1.40;99.90;;;;;;5028550;28;20432;-69
2021/11/26 05:20:42;;;;;;;73.20;34.83;;;1.40;99.90;;;;;;5013072;28;20836;-69
2021/11/26 05:23:09;;;;;;;69.40;32.60;;;1.40;99.90;;;;;;5020917;28;20475;-69
2021/11/26 05:25:35;;;;;;;61.37;32.00;;;1.50;99.90;;;;;;5016840;28;20433;-69
2021/11/26 05:28:00;;;;;;;60.23;31.43;;;1.50;99.90;;;;;;5028609;28;20483;-69
2021/11/26 05:30:26;;;;;;;58.37;28.47;;;1.50;99.90;;;;;;5012883;28;20680;-69
2021/11/26 05:32:52;;;;;;;65.60;32.53;;;1.60;99.90;;;;;;5019679;28;20816;-69
2021/11/26 05:35:19;;;;;;;52.80;29.10;;;1.60;99.90;;;;;;5019542;28;20179;-69
2021/11/26 05:37:46;;;;;;;51.73;29.20;;;1.80;99.90;;;;;;5023771;28;20178;-70
2021/11/26 05:40:12;;;;;;;51.13;27.77;;;1.90;99.90;;;;;;5025933;28;20458;-70
2021/11/26 05:42:39;;;;;;;52.33;29.40;;;2.00;99.90;;;;;;5012642;28;20434;-69
2021/11/26 05:45:06;;;;;;;48.20;27.87;;;2.10;99.90;;;;;;5024173;28;20479;-69
2021/11/26 05:47:32;;;;;;;50.93;25.90;;;2.20;99.90;;;;;;5020147;28;20820;-69
2021/11/26 05:49:57;;;;;;;51.27;27.30;;;2.30;99.90;;;;;;5017822;28;20453;-70
2021/11/26 05:52:23;;;;;;;51.70;27.40;;;2.30;99.90;;;;;;5014844;28;20205;-70
2021/11/26 05:54:49;;;;;;;48.37;26.60;;;2.40;99.90;;;;;;5012266;28;20209;-69
2021/11/26 05:57:14;;;;;;;49.80;26.50;;;2.50;99.90;;;;;;5026036;28;20171;-68
2021/11/26 05:59:40;;;;;;;50.50;27.13;;;2.50;99.90;;;;;;5017830;28;20281;-70
2021/11/26 06:02:06;;;;;;;46.43;26.10;;;2.40;99.90;;;;;;5023319;28;20178;-69
2021/11/26 06:04:32;;;;;;;53.20;26.70;;;2.50;99.90;;;;;;5019982;28;20189;-70
2021/11/26 06:06:58;;;;;;;46.60;25.73;;;2.40;99.90;;;;;;5027951;28;20209;-69
2021/11/26 06:09:24;;;;;;;45.43;25.23;;;2.40;99.90;;;;;;5006599;28;20461;-70
2021/11/26 06:11:49;;;;;;;46.27;25.40;;;2.50;99.90;;;;;;5019854;28;20452;-69
2021/11/26 06:14:15;;;;;;;51.20;28.20;;;2.50;99.90;;;;;;5014089;28;20441;-69
2021/11/26 06:16:41;;;;;;;47.20;27.00;;;2.50;99.90;;;;;;5011969;28;20545;-69
2021/11/26 06:19:07;;;;;;;43.17;27.33;;;2.40;99.90;;;;;;5019798;28;20173;-69
2021/11/26 06:21:33;;;;;;;51.40;28.20;;;2.20;99.90;;;;;;5031315;28;20197;-69
2021/11/26 06:23:58;;;;;;;47.13;25.40;;;2.20;99.90;;;;;;5016042;28;20430;-69
2021/11/26 06:26:24;;;;;;;46.77;27.03;;;2.40;99.90;;;;;;5015890;28;20473;-69
2021/11/26 06:28:50;;;;;;;43.87;25.83;;;2.50;99.90;;;;;;5011974;28;20608;-69
2021/11/26 06:31:16;;;;;;;41.40;26.07;;;2.60;99.90;;;;;;5016138;28;20488;-69
2021/11/26 06:33:41;;;;;;;47.63;29.00;;;2.60;99.90;;;;;;5025447;28;20174;-70
2021/11/26 06:36:07;;;;;;;45.97;26.80;;;2.60;99.90;;;;;;5022680;28;20182;-69
2021/11/26 06:38:32;;;;;;;50.40;25.77;;;2.60;99.90;;;;;;5016802;28;20178;-69
2021/11/26 06:40:59;;;;;;;49.23;27.40;;;2.60;99.90;;;;;;5031605;28;20215;-69
2021/11/26 06:43:24;;;;;;;47.50;28.93;;;2.60;99.90;;;;;;5012676;28;20179;-69
2021/11/26 06:45:50;;;;;;;47.73;28.93;;;2.70;99.90;;;;;;5022924;28;20436;-70
2021/11/26 06:48:16;;;;;;;48.30;28.30;;;2.70;99.90;;;;;;5021925;28;20550;-69
2021/11/26 06:50:41;;;;;;;49.80;27.27;;;2.70;99.90;;;;;;5026331;28;20697;-69
2021/11/26 06:53:07;;;;;;;41.17;25.60;;;2.80;99.90;;;;;;5014654;28;20206;-70
2021/11/26 06:55:33;;;;;;;47.10;28.10;;;2.80;99.90;;;;;;5005168;28;20696;-69
2021/11/26 06:57:59;;;;;;;43.13;27.43;;;2.80;99.90;;;;;;5015841;28;20182;-69
2021/11/26 07:00:25;;;;;;;48.40;27.30;;;2.80;99.90;;;;;;5028656;28;20449;-69
2021/11/26 07:02:51;;;;;;;51.57;28.20;;;2.80;99.90;;;;;;5011833;28;20179;-69
2021/11/26 07:05:17;;;;;;;50.30;27.87;;;2.80;99.90;;;;;;5021078;28;20448;-69
2021/11/26 07:07:43;;;;;;;51.57;28.70;;;2.70;99.90;;;;;;5018199;28;20225;-69
2021/11/26 07:10:10;;;;;;;51.33;29.00;;;2.60;99.90;;;;;;5027958;28;20456;-69
2021/11/26 07:12:36;;;;;;;49.80;31.10;;;2.40;99.90;;;;;;5026981;28;20278;-69
2021/11/26 07:15:03;;;;;;;49.23;28.60;;;2.40;99.90;;;;;;5022568;28;20433;-69
2021/11/26 07:17:29;;;;;;;53.73;28.70;;;2.40;99.90;;;;;;5011799;28;20437;-70
2021/11/26 07:19:55;;;;;;;54.33;29.40;;;2.40;99.90;;;;;;5028814;28;20511;-69
2021/11/26 07:22:20;;;;;;;46.03;27.27;;;2.30;99.90;;;;;;5025685;28;20182;-69
2021/11/26 07:24:46;;;;;;;49.47;29.20;;;2.40;99.90;;;;;;5029879;28;20217;-70
2021/11/26 07:27:13;;;;;;;42.97;26.77;;;2.50;99.90;;;;;;5011633;28;20262;-70
2021/11/26 07:29:38;;;;;;;47.97;28.17;;;2.40;99.90;;;;;;5020947;28;20956;-70
2021/11/26 07:32:05;;;;;;;49.57;28.20;;;2.30;99.90;;;;;;5019143;28;20457;-70
2021/11/26 07:34:31;;;;;;;46.77;27.37;;;2.10;99.90;;;;;;5019200;28;20171;-70
2021/11/26 07:36:57;;;;;;;53.67;29.03;;;2.10;99.90;;;;;;5025451;28;20448;-70
2021/11/26 07:39:24;;;;;;;50.40;28.00;;;2.10;99.90;;;;;;5034320;28;20194;-69
2021/11/26 07:41:50;;;;;;;48.70;30.03;;;2.10;99.90;;;;;;5019807;28;20932;-70
2021/11/26 07:44:15;;;;;;;51.70;27.90;;;2.10;99.90;;;;;;5043300;28;20548;-69
2021/11/26 07:46:41;;;;;;;47.87;28.13;;;2.10;99.90;;;;;;4983844;28;20453;-70
2021/11/26 07:49:07;;;;;;;57.23;29.00;;;2.10;99.90;;;;;;4998928;28;20179;-70
2021/11/26 07:51:33;;;;;;;49.00;28.23;;;2.20;99.90;;;;;;5013979;28;20656;-77
2021/11/26 07:53:58;;;;;;;44.30;25.13;;;2.20;99.90;;;;;;5022546;28;20437;-77
2021/11/26 07:56:24;;;;;;;51.80;28.00;;;2.20;99.90;;;;;;5009626;28;20179;-77
2021/11/26 07:58:50;;;;;;;47.73;27.00;;;2.40;99.90;;;;;;5015104;28;20896;-77
2021/11/26 08:01:16;;;;;;;51.63;29.27;;;2.40;99.90;;;;;;5013088;28;20959;-77
2021/11/26 08:03:42;;;;;;;53.20;29.50;;;2.40;99.90;;;;;;5019697;28;20178;-77
2021/11/26 08:06:08;;;;;;;49.57;28.47;;;2.50;99.90;;;;;;5025579;28;20258;-77
2021/11/26 08:08:33;;;;;;;49.63;27.70;;;2.60;99.90;;;;;;5007435;28;20893;-77
2021/11/26 08:10:59;;;;;;;44.90;24.80;;;2.70;99.90;;;;;;5011710;28;20199;-76
2021/11/26 08:13:25;;;;;;;47.50;25.77;;;2.80;99.90;;;;;;5016487;28;20617;-74
2021/11/26 08:15:50;;;;;;;46.60;26.83;;;2.70;99.90;;;;;;5014706;28;20442;-71
2021/11/26 08:18:16;;;;;;;52.70;29.20;;;2.70;99.90;;;;;;5014587;28;20179;-72
2021/11/26 08:20:42;;;;;;;41.40;25.60;;;2.60;99.90;;;;;;5013004;28;20230;-72
2021/11/26 08:23:08;;;;;;;51.30;31.97;;;2.70;99.90;;;;;;5013382;28;20191;-71
2021/11/26 08:25:34;;;;;;;48.40;27.40;;;2.80;99.90;;;;;;5015221;28;20171;-71
2021/11/26 08:28:01;;;;;;;36.10;23.47;;;2.90;99.90;;;;;;5013787;28;20504;-71
2021/11/26 08:30:26;;;;;;;43.37;25.87;;;3.00;99.90;;;;;;5013275;28;21490;-72
2021/11/26 08:32:53;;;;;;;40.17;25.47;;;3.00;99.90;;;;;;5002941;28;20493;-73
2021/11/26 08:35:19;;;;;;;41.53;24.53;;;3.10;99.90;;;;;;5015362;28;20183;-71
2021/11/26 08:37:46;;;;;;;42.13;23.57;;;3.10;99.90;;;;;;5011017;28;20788;-71
2021/11/26 08:40:12;;;;;;;48.27;26.33;;;3.10;99.90;;;;;;5015424;28;20480;-71
2021/11/26 08:42:38;;;;;;;52.00;29.80;;;3.10;99.90;;;;;;5016953;28;20444;-71
2021/11/26 08:45:04;;;;;;;42.23;25.80;;;3.10;99.90;;;;;;5023195;28;20806;-74
2021/11/26 08:47:30;;;;;;;39.00;23.73;;;3.10;99.90;;;;;;5009688;28;20675;-70
2021/11/26 08:49:55;;;;;;;39.93;23.60;;;3.20;99.90;;;;;;5020318;28;20546;-71
2021/11/26 08:52:21;;;;;;;46.27;25.57;;;3.20;99.90;;;;;;5023768;28;20598;-71
2021/11/26 08:54:47;;;;;;;44.57;25.00;;;3.10;99.90;;;;;;5012881;28;20167;-70
2021/11/26 08:57:15;;;;;;;45.50;25.07;;;2.90;99.90;;;;;;5022751;28;20174;-68
2021/11/26 08:59:41;;;;;;;45.60;27.50;;;2.70;99.90;;;;;;5015379;28;20190;-70
2021/11/26 09:02:08;;;;;;;48.07;28.57;;;2.50;99.90;;;;;;5015243;28;20444;-70
2021/11/26 09:04:33;;;;;;;47.37;28.30;;;2.40;99.90;;;;;;4999004;28;20286;-72
2021/11/26 09:06:59;;;;;;;50.07;29.97;;;2.30;99.90;;;;;;5010786;28;20524;-71
2021/11/26 09:09:24;;;;;;;56.47;29.60;;;2.30;99.90;;;;;;4998285;28;20708;-70
2021/11/26 09:11:51;;;;;;;50.17;28.77;;;2.40;99.90;;;;;;5022903;28;20214;-71
2021/11/26 09:14:18;;;;;;;55.20;29.03;;;2.40;99.90;;;;;;5019717;28;20611;-70
2021/11/26 09:16:44;;;;;;;56.90;31.63;;;2.50;99.90;;;;;;5022745;28;20437;-69
2021/11/26 09:19:09;;;;;;;56.93;33.50;;;2.50;99.90;;;;;;5009710;28;20520;-71
2021/11/26 09:21:35;;;;;;;50.50;29.90;;;2.50;99.90;;;;;;5010309;28;20616;-69
2021/11/26 09:24:01;;;;;;;52.87;28.87;;;2.60;99.90;;;;;;5008906;28;20170;-71
2021/11/26 09:26:27;;;;;;;53.77;28.97;;;2.60;99.90;;;;;;5009566;28;20217;-71
2021/11/26 09:28:54;;;;;;;56.70;30.90;;;2.60;99.90;;;;;;5007129;28;20938;-69
2021/11/26 09:31:20;;;;;;;52.87;30.40;;;2.60;99.90;;;;;;5021666;28;20206;-67
2021/11/26 09:33:47;;;;;;;52.33;27.63;;;2.60;99.90;;;;;;5020242;28;20433;-66
2021/11/26 09:36:13;;;;;;;57.47;30.23;;;2.70;99.90;;;;;;5013839;28;20434;-66
2021/11/26 09:38:41;;;;;;;48.17;28.60;;;2.70;99.90;;;;;;5014706;28;20495;-67
2021/11/26 09:41:10;;;;;;;53.33;29.80;;;2.70;99.90;;;;;;5013921;28;20457;-66
2021/11/26 09:43:35;;;;;;;51.90;29.40;;;2.70;99.90;;;;;;5020226;28;20519;-66
2021/11/26 09:46:04;;;;;;;53.50;28.60;;;2.70;99.90;;;;;;5014959;28;20452;-66
2021/11/26 09:48:32;;;;;;;53.80;29.97;;;2.70;99.90;;;;;;5027459;28;20209;-66
2021/11/26 09:50:57;;;;;;;44.67;28.57;;;2.70;99.90;;;;;;5015972;28;20510;-66
2021/11/26 09:53:26;;;;;;;54.60;29.10;;;2.70;99.90;;;;;;5019253;28;20983;-66
2021/11/26 09:55:59;;;;;;;62.57;32.70;;;2.80;99.90;;;;;;5015736;28;20233;-66
2021/11/26 09:58:27;;;;;;;53.07;30.87;;;2.70;99.90;;;;;;5013354;28;21001;-66
2021/11/26 10:00:54;;;;;;;62.70;31.50;;;2.60;99.90;;;;;;5004348;28;20450;-66
2021/11/26 10:03:40;;;;;;;56.40;30.27;;;2.70;99.90;;;;;;5015601;28;20438;-66
2021/11/26 10:06:44;;;;;;;57.50;30.87;;;2.80;99.90;;;;;;5013348;28;20433;-66
2021/11/26 10:09:11;;;;;;;74.27;36.83;;;2.80;99.90;;;;;;5028354;28;20487;-66
2021/11/26 10:11:44;;;;;;;67.93;32.03;;;2.80;99.90;;;;;;5026450;28;20551;-66
2021/11/26 10:14:23;;;;;;;66.93;31.90;;;2.90;99.90;;;;;;5010746;28;20512;-66
2021/11/26 10:16:55;;;;;;;56.27;30.90;;;2.90;99.90;;;;;;5008685;28;20962;-66
2021/11/26 10:19:40;;;;;;;57.73;30.20;;;3.10;99.90;;;;;;5006048;28;20468;-66
2021/11/26 10:22:20;;;;;;;56.93;29.50;;;3.10;99.90;;;;;;5010908;28;20445;-66
2021/11/26 10:25:19;;;;;;;52.40;30.17;;;3.10;99.90;;;;;;5008375;28;20985;-66
2021/11/26 10:27:56;;;;;;;57.40;29.47;;;3.10;99.90;;;;;;4994248;28;20437;-66
2021/11/26 10:30:24;;;;;;;52.77;26.20;;;3.30;99.90;;;;;;4999335;28;20789;-66
2021/11/26 10:33:04;;;;;;;63.07;28.53;;;3.30;99.90;;;;;;5026757;28;20474;-66
2021/11/26 10:35:38;;;;;;;49.23;28.50;;;3.40;99.90;;;;;;5016902;28;20441;-66
2021/11/26 10:38:15;;;;;;;47.00;25.03;;;3.40;99.90;;;;;;5010170;28;20796;-66
2021/11/26 10:40:44;;;;;;;56.77;29.60;;;3.30;99.90;;;;;;5014695;28;20456;-67
2021/11/26 10:43:17;;;;;;;48.20;26.83;;;3.30;99.90;;;;;;5012194;28;20965;-66
2021/11/26 10:59:34;;;;;;;48.33;24.67;;;3.20;99.90;;;;;;5008605;28;20479;-68
2021/11/26 11:02:00;;;;;;;44.10;26.07;;;3.20;99.90;;;;;;5007824;28;20984;-66
2021/11/26 11:04:28;;;;;;;49.57;27.77;;;3.20;99.90;;;;;;5026639;28;20190;-66
2021/11/26 11:06:57;;;;;;;60.07;29.80;;;3.20;99.90;;;;;;5017668;28;20214;-67
2021/11/26 11:09:23;;;;;;;48.83;27.00;;;3.20;99.90;;;;;;5020448;28;20460;-68
2021/11/26 11:11:54;;;;;;;47.17;23.53;;;3.10;99.90;;;;;;5028731;28;20983;-66
2021/11/26 11:14:22;;;;;;;37.37;23.50;;;3.10;99.90;;;;;;5011726;28;20187;-66
2021/11/26 11:16:55;;;;;;;48.83;26.17;;;3.70;99.90;;;;;;5011275;28;20426;-66
2021/11/26 11:19:22;;;;;;;44.53;24.70;;;5.00;99.90;;;;;;5011405;28;20469;-66
2021/11/26 11:21:49;;;;;;;39.93;23.47;;;4.80;99.90;;;;;;5010133;28;20534;-65
2021/11/26 11:24:16;;;;;;;43.50;26.83;;;4.40;99.90;;;;;;5011742;28;20433;-65
2021/11/26 11:26:47;;;;;;;45.47;25.43;;;4.00;99.90;;;;;;5012521;28;20496;-64
2021/11/26 11:29:19;;;;;;;52.60;26.60;;;3.50;99.90;;;;;;5013068;28;20520;-64
2021/11/26 11:31:45;;;;;;;47.70;26.17;;;3.40;99.90;;;;;;5012719;28;20488;-67
2021/11/26 11:34:13;;;;;;;43.47;25.13;;;3.30;99.90;;;;;;5018585;28;20437;-65
2021/11/26 11:36:41;;;;;;;47.80;26.40;;;3.50;99.90;;;;;;5005329;28;20516;-65
2021/11/26 11:39:07;;;;;;;58.37;32.57;;;3.50;99.90;;;;;;5024237;28;20519;-66
2021/11/26 11:41:55;;;;;;;39.80;24.53;;;3.50;99.90;;;;;;5017991;28;20875;-66
2021/11/26 11:44:40;;;;;;;46.57;26.80;;;3.50;99.90;;;;;;5020576;28;20861;-66
2021/11/26 11:47:20;;;;;;;52.67;26.30;;;3.50;99.90;;;;;;5010353;28;20460;-67
2021/11/26 11:49:47;;;;;;;50.83;27.07;;;3.50;99.90;;;;;;5016719;28;20458;-67
2021/11/26 11:52:15;;;;;;;39.27;23.90;;;3.40;99.90;;;;;;5017522;28;20813;-67
2021/11/26 11:54:45;;;;;;;39.47;22.20;;;3.40;99.90;;;;;;5014663;28;20437;-67
2021/11/26 11:57:26;;;;;;;50.63;26.03;;;3.40;99.90;;;;;;5010737;28;20445;-66
2021/11/26 11:59:53;;;;;;;49.07;26.43;;;3.40;99.90;;;;;;5016812;28;20825;-65
2021/11/26 12:02:25;;;;;;;46.77;25.77;;;3.40;99.90;;;;;;5018233;28;20860;-65
2021/11/26 12:04:53;;;;;;;45.57;24.67;;;3.40;99.90;;;;;;5009957;28;20536;-65
2021/11/26 12:07:28;;;;;;;49.40;26.40;;;3.50;99.90;;;;;;5010645;28;20503;-65
2021/11/26 12:10:08;;;;;;;46.13;24.40;;;3.50;99.90;;;;;;5010903;28;20469;-65
2021/11/26 12:12:49;;;;;;;47.33;24.53;;;3.50;99.90;;;;;;5017996;28;20452;-65
2021/11/26 12:15:32;;;;;;;46.93;25.87;;;3.50;99.90;;;;;;5011832;28;20877;-70
2021/11/26 12:18:04;;;;;;;48.53;26.83;;;3.60;99.90;;;;;;5011293;28;20802;-70
2021/11/26 12:20:30;;;;;;;44.30;23.37;;;3.80;99.90;;;;;;5020478;28;20461;-65
2021/11/26 12:23:02;;;;;;;39.40;21.63;;;4.10;99.90;;;;;;5010542;28;20495;-66
2021/11/26 12:28:09;;;;;;;46.90;25.37;;;4.00;99.90;;;;;;5010336;28;20429;-65
2021/11/26 12:30:36;;;;;;;53.83;28.70;;;4.00;99.90;;;;;;5007507;28;21041;-65
2021/11/26 12:33:23;;;;;;;40.77;24.27;;;3.90;99.90;;;;;;5009758;28;20552;-65
2021/11/26 12:36:00;;;;;;;51.00;24.70;;;3.80;99.90;;;;;;5010374;28;20469;-65
2021/11/26 12:38:48;;;;;;;42.23;23.30;;;3.70;99.90;;;;;;5010525;28;20434;-66
2021/11/26 12:41:33;;;;;;;45.37;24.47;;;3.60;99.90;;;;;;5008375;28;20477;-65
2021/11/26 12:44:01;;;;;;;45.60;25.00;;;3.60;99.90;;;;;;5013256;28;20426;-65
2021/11/26 12:46:37;;;;;;;45.83;24.23;;;3.60;99.90;;;;;;5011774;28;20430;-65
2021/11/26 12:49:16;;;;;;;50.37;25.17;;;3.50;99.90;;;;;;5014316;28;20434;-65
2021/11/26 12:51:45;;;;;;;47.00;28.60;;;3.50;99.90;;;;;;5019687;28;20539;-67
2021/11/26 12:54:41;;;;;;;47.10;26.57;;;3.40;99.90;;;;;;5023753;28;20499;-65